KCCO

Newnan Coweta County Airport

Atlanta, Georgia, USA
METAR KCCO 230135Z AUTO 00000KT 10SM CLR 12/09 A3024 RMK AO2 T01210087
Observed Flight Rules
Oct-23 @ 01:35 UTC (25 minutes ago) Visual Flight Rules
Visibility Clouds
10 miles
  • Clear skies
Temperatures Readings
Current 12°C / 54°F
Dewpoint 9°C / 48°F
Humidity 82%
Altimeter 30.24" Hg
Pressure 1024 hPa
Elevation 296
METAR KCCO 230135Z AUTO 00000KT 10SM CLR 12/09 A3024 RMK AO2 T01210087
Observed Flight Rules
Oct-23 @ 01:35 UTC
(25 minutes ago)
VFR
Clouds
  • Clear skies
Temperature Dewpoint
12°C / 54°F 9°C / 48°F
Humidity Altimeter Pressure
82% 30.24" Hg 1024 hPa